Time;durP1;ratioP1;P1;durP2;ratioP2;P2;SDS_P1;SDS_P2;PMS_P1;PMS_P2;Temp;Humidity;BMP_temperature;BMP_pressure;BME280_temperature;BME280_humidity;BME280_pressure;Samples;Min_cycle;Max_cycle;Signal;HPM_P1;HPM_P2
2022/10/22 00:00:59;;;;;;;9.67;7.23;;;;;;;8.72;100.00;99327.81;6097070;23;20283;-80
2022/10/22 00:03:26;;;;;;;7.37;6.63;;;;;;;8.63;100.00;99316.56;6097017;23;20696;-80
2022/10/22 00:05:52;;;;;;;8.13;7.23;;;;;;;8.53;100.00;99302.06;6097229;23;20263;-80
2022/10/22 00:08:19;;;;;;;8.43;7.40;;;;;;;8.52;100.00;99303.06;6096027;23;20212;-80
2022/10/22 00:10:45;;;;;;;8.40;7.50;;;;;;;8.50;100.00;99305.13;6096467;23;20207;-80
2022/10/22 00:13:12;;;;;;;8.07;6.57;;;;;;;8.42;100.00;99308.06;6097226;23;20231;-80
2022/10/22 00:15:39;;;;;;;10.70;7.40;;;;;;;8.36;100.00;99307.06;6071451;23;20219;-80
2022/10/22 00:18:05;;;;;;;8.20;7.40;;;;;;;8.33;100.00;99297.63;6096297;23;20215;-80
2022/10/22 00:20:32;;;;;;;8.00;7.20;;;;;;;8.35;100.00;99295.56;6098737;23;20219;-81
2022/10/22 00:22:59;;;;;;;7.90;7.10;;;;;;;8.30;100.00;99294.59;6076966;23;20208;-81
2022/10/22 00:25:25;;;;;;;7.80;7.00;;;;;;;8.25;100.00;99299.69;6100476;23;20214;-81
2022/10/22 00:27:52;;;;;;;9.03;6.60;;;;;;;8.15;100.00;99302.00;6100943;23;20212;-80
2022/10/22 00:30:18;;;;;;;8.57;6.83;;;;;;;8.03;100.00;99315.16;6100807;23;20216;-80
2022/10/22 00:32:45;;;;;;;8.53;7.53;;;;;;;8.11;100.00;99314.13;6101120;23;20207;-81
2022/10/22 00:35:12;;;;;;;9.13;7.23;;;;;;;8.11;100.00;99314.94;6101060;23;20208;-81
2022/10/22 00:37:38;;;;;;;9.83;7.20;;;;;;;8.04;100.00;99308.81;6076655;23;20219;-81
2022/10/22 00:40:06;;;;;;;8.10;7.30;;;;;;;8.02;100.00;99297.53;6102072;23;20208;-80
2022/10/22 00:42:32;;;;;;;9.50;7.20;;;;;;;8.00;100.00;99291.59;6077281;23;20210;-81
2022/10/22 00:45:08;;;;;;;8.47;7.23;;;;;;;7.98;100.00;99286.44;6101820;23;20693;-81
2022/10/22 00:47:41;;;;;;;8.77;6.90;;;;;;;7.92;100.00;99273.97;6100821;23;20210;-80
2022/10/22 00:50:13;;;;;;;9.00;7.30;;;;;;;7.89;100.00;99278.91;6074992;23;20212;-80
2022/10/22 00:52:40;;;;;;;9.17;7.10;;;;;;;7.83;100.00;99283.25;6074641;23;20238;-80
2022/10/22 00:55:07;;;;;;;8.00;6.57;;;;;;;7.90;100.00;99278.69;6075634;23;20204;-80
2022/10/22 00:57:35;;;;;;;8.07;6.90;;;;;;;7.86;100.00;99282.00;6075231;23;20291;-80
2022/10/22 01:00:03;;;;;;;8.30;6.50;;;;;;;7.80;100.00;99296.97;6074868;23;20216;-81
2022/10/22 01:02:36;;;;;;;8.90;6.63;;;;;;;7.70;100.00;99291.25;6091681;23;20208;-83
2022/10/22 01:05:12;;;;;;;7.30;6.60;;;;;;;7.67;100.00;99305.03;6114951;23;20666;-81
2022/10/22 01:07:50;;;;;;;8.03;7.10;;;;;;;7.68;100.00;99298.66;6077916;23;20212;-81
2022/10/22 01:10:23;;;;;;;8.23;7.10;;;;;;;7.63;100.00;99301.13;6102268;23;20212;-80
2022/10/22 01:12:55;;;;;;;9.67;7.07;;;;;;;7.67;100.00;99297.03;6101012;23;20212;-81
2022/10/22 01:15:42;;;;;;;8.17;6.80;;;;;;;7.60;100.00;99285.56;6103738;23;20573;-81
2022/10/22 01:18:09;;;;;;;7.33;6.63;;;;;;;7.63;100.00;99284.31;6036211;23;20216;-82
2022/10/22 01:20:57;;;;;;;9.17;6.97;;;;;;;7.68;100.00;99277.34;6086491;23;20259;-82
2022/10/22 01:23:43;;;;;;;8.13;6.60;;;;;;;7.64;100.00;99276.13;6067361;23;20212;-82
2022/10/22 01:26:22;;;;;;;8.90;7.10;;;;;;;7.55;100.00;99269.38;6109097;23;20562;-81
2022/10/22 01:29:20;;;;;;;9.10;7.03;;;;;;;7.61;100.00;99276.50;6103878;23;20211;-81
2022/10/22 01:32:08;;;;;;;9.43;7.23;;;;;;;7.63;100.00;99268.31;6105357;23;20223;-81
2022/10/22 01:34:37;;;;;;;7.93;7.13;;;;;;;7.59;100.00;99254.59;6079202;23;20334;-81
2022/10/22 01:37:04;;;;;;;7.80;6.63;;;;;;;7.64;100.00;99233.47;6078703;23;20569;-80
2022/10/22 01:39:32;;;;;;;9.13;6.90;;;;;;;7.71;100.00;99230.75;6080689;23;20762;-81
2022/10/22 01:41:58;;;;;;;8.73;7.00;;;;;;;7.64;100.00;99216.63;6055823;23;20203;-81
2022/10/22 01:44:27;;;;;;;8.43;6.77;;;;;;;7.69;100.00;99217.66;6104586;23;20223;-81
2022/10/22 01:47:00;;;;;;;7.80;7.00;;;;;;;7.50;100.00;99213.19;6107556;23;20684;-81
2022/10/22 01:49:37;;;;;;;8.80;6.87;;;;;;;7.46;100.00;99239.47;6081820;23;20215;-82
2022/10/22 01:52:25;;;;;;;8.60;6.60;;;;;;;7.49;100.00;99254.19;6106186;23;20589;-81
2022/10/22 01:55:09;;;;;;;8.80;7.10;;;;;;;7.45;100.00;99263.66;6106554;23;20218;-81
2022/10/22 01:58:02;;;;;;;8.83;7.13;;;;;;;7.38;100.00;99262.81;6056841;23;20204;-81
2022/10/22 02:00:29;;;;;;;7.73;6.90;;;;;;;7.31;100.00;99249.53;6086671;23;20511;-81
2022/10/22 02:03:12;;;;;;;7.60;6.90;;;;;;;7.27;100.00;99240.31;6058246;23;20673;-81
2022/10/22 02:05:48;;;;;;;8.10;6.90;;;;;;;7.25;100.00;99247.69;6107901;23;20212;-81
2022/10/22 02:08:22;;;;;;;8.53;7.20;;;;;;;7.10;100.00;99233.75;6082221;23;20223;-82
2022/10/22 02:10:50;;;;;;;9.30;7.87;;;;;;;7.16;100.00;99232.94;6048020;23;20713;-79
2022/10/22 02:13:24;;;;;;;8.47;6.97;;;;;;;7.14;100.00;99234.19;6070858;23;20210;-79
2022/10/22 02:15:51;;;;;;;8.07;7.27;;;;;;;7.12;100.00;99221.06;6072005;23;20721;-79
2022/10/22 02:18:23;;;;;;;8.23;7.30;;;;;;;7.14;100.00;99212.88;6096685;23;20599;-79
2022/10/22 02:20:51;;;;;;;8.30;7.47;;;;;;;7.11;100.00;99213.28;6072223;23;20287;-80
2022/10/22 02:23:19;;;;;;;10.20;7.33;;;;;;;7.06;100.00;99205.91;6097453;23;20212;-79
2022/10/22 02:25:49;;;;;;;11.27;7.60;;;;;;;6.97;100.00;99218.63;6071811;23;20212;-79
2022/10/22 02:28:23;;;;;;;8.20;6.70;;;;;;;6.94;100.00;99219.03;6071292;23;20218;-79
2022/10/22 02:30:53;;;;;;;8.20;6.83;;;;;;;6.92;100.00;99220.25;6096944;23;20290;-79
2022/10/22 02:33:27;;;;;;;9.83;7.60;;;;;;;6.88;100.00;99209.19;6072569;23;20215;-79
2022/10/22 02:35:55;;;;;;;8.23;7.40;;;;;;;6.88;100.00;99211.88;6073146;23;20208;-80
2022/10/22 02:38:23;;;;;;;10.10;7.60;;;;;;;6.88;100.00;99219.03;6098246;23;20223;-80
2022/10/22 02:40:49;;;;;;;8.27;6.90;;;;;;;6.83;100.00;99205.50;6098447;23;20215;-80
2022/10/22 02:43:17;;;;;;;8.93;7.40;;;;;;;6.80;100.00;99208.59;6097467;23;20267;-80
2022/10/22 02:45:44;;;;;;;9.10;7.17;;;;;;;6.77;100.00;99214.31;6072564;23;20203;-79
2022/10/22 02:48:10;;;;;;;8.30;7.50;;;;;;;6.73;100.00;99210.44;6096708;23;20559;-79
2022/10/22 02:50:37;;;;;;;10.47;7.63;;;;;;;6.70;100.00;99203.69;6097460;23;20242;-79
2022/10/22 02:53:03;;;;;;;9.23;7.20;;;;;;;6.68;100.00;99210.22;6100155;23;20219;-80
2022/10/22 02:55:30;;;;;;;8.77;7.60;;;;;;;6.64;100.00;99213.31;6100501;23;20215;-80
2022/10/22 02:57:57;;;;;;;9.00;7.50;;;;;;;6.68;100.00;99216.38;6074972;23;20208;-80
2022/10/22 03:00:23;;;;;;;10.57;7.73;;;;;;;6.69;100.00;99203.88;6074381;23;20248;-80
2022/10/22 03:02:50;;;;;;;9.87;7.70;;;;;;;6.71;100.00;99193.84;6099801;23;20185;-80
2022/10/22 03:05:16;;;;;;;9.10;7.20;;;;;;;6.69;100.00;99206.53;6100474;23;20717;-81
2022/10/22 03:07:43;;;;;;;8.30;7.30;;;;;;;6.55;100.00;99201.22;6101617;23;20204;-81
2022/10/22 03:10:10;;;;;;;8.13;7.37;;;;;;;6.56;100.00;99199.38;6099270;23;20220;-80
2022/10/22 03:12:36;;;;;;;10.80;7.33;;;;;;;6.42;100.00;99201.22;6071904;23;20653;-79
2022/10/22 03:15:03;;;;;;;9.23;7.53;;;;;;;6.41;100.00;99220.03;6095624;23;20204;-80
2022/10/22 03:17:30;;;;;;;10.60;7.83;;;;;;;6.35;100.00;99218.16;6070520;23;20204;-80
2022/10/22 03:19:56;;;;;;;10.73;7.83;;;;;;;6.33;100.00;99229.03;6096327;23;20797;-80
2022/10/22 03:22:26;;;;;;;7.93;6.93;;;;;;;6.33;100.00;99214.91;6095832;23;20208;-80
2022/10/22 03:24:56;;;;;;;10.70;7.63;;;;;;;6.29;100.00;99216.34;6071045;23;20211;-80
2022/10/22 03:27:23;;;;;;;8.53;7.57;;;;;;;6.26;100.00;99211.41;6073577;23;20216;-80
2022/10/22 03:29:51;;;;;;;9.83;7.53;;;;;;;6.25;100.00;99209.78;6073917;23;20208;-80
2022/10/22 03:32:18;;;;;;;8.63;7.43;;;;;;;6.25;100.00;99209.78;6072914;23;20218;-80
2022/10/22 03:34:45;;;;;;;9.17;7.80;;;;;;;6.20;100.00;99208.53;6073838;23;20212;-80
2022/10/22 03:37:12;;;;;;;9.23;7.73;;;;;;;6.13;100.00;99204.22;6070999;23;20204;-80
2022/10/22 03:39:39;;;;;;;9.00;7.27;;;;;;;6.12;100.00;99200.75;6096504;23;20212;-80
2022/10/22 03:42:06;;;;;;;8.83;7.60;;;;;;;6.11;100.00;99200.97;6071562;23;20228;-80
2022/10/22 03:44:35;;;;;;;8.23;7.03;;;;;;;6.12;100.00;99203.41;6095129;23;20205;-80
2022/10/22 03:47:01;;;;;;;9.30;8.03;;;;;;;6.05;100.00;99199.09;6098372;23;20732;-81
2022/10/22 03:49:28;;;;;;;8.20;7.33;;;;;;;6.02;100.00;99189.66;6098707;23;20226;-80
2022/10/22 03:51:55;;;;;;;10.17;7.40;;;;;;;6.03;100.00;99177.19;6071249;23;20208;-79
2022/10/22 03:54:21;;;;;;;7.87;7.10;;;;;;;6.02;100.00;99180.91;6095738;23;20268;-79
2022/10/22 03:56:48;;;;;;;8.33;7.43;;;;;;;6.05;100.00;99169.84;6095904;23;20554;-80
2022/10/22 03:59:15;;;;;;;9.90;7.70;;;;;;;5.95;100.00;99158.78;6095482;23;20228;-79
2022/10/22 04:01:41;;;;;;;10.67;7.93;;;;;;;5.95;100.00;99159.59;6094402;23;20212;-79
2022/10/22 04:04:08;;;;;;;11.40;7.73;;;;;;;5.93;100.00;99161.63;6095658;23;20204;-81
2022/10/22 04:06:34;;;;;;;8.13;7.20;;;;;;;5.87;100.00;99165.09;6096775;23;20212;-80
2022/10/22 04:09:01;;;;;;;9.50;7.67;;;;;;;5.79;100.00;99162.56;6097096;23;20216;-80
2022/10/22 04:11:28;;;;;;;9.83;7.47;;;;;;;5.78;100.00;99179.56;6096430;23;20211;-80
2022/10/22 04:13:54;;;;;;;8.50;7.50;;;;;;;5.79;100.00;99189.16;6096819;23;20200;-80
2022/10/22 04:16:22;;;;;;;9.30;7.73;;;;;;;5.77;100.00;99201.84;6098544;23;20211;-80
2022/10/22 04:18:52;;;;;;;8.47;7.40;;;;;;;5.68;100.00;99213.66;6099376;23;20232;-80
2022/10/22 04:21:20;;;;;;;8.87;7.97;;;;;;;5.67;100.00;99225.31;6074462;23;20184;-81
2022/10/22 04:23:49;;;;;;;9.80;8.83;;;;;;;5.65;100.00;99232.66;6072542;23;20204;-80
2022/10/22 04:26:16;;;;;;;12.53;8.90;;;;;;;5.59;100.00;99228.97;6072096;23;20218;-80
2022/10/22 04:28:44;;;;;;;10.60;8.93;;;;;;;5.59;100.00;99221.00;6097263;23;20598;-80
2022/10/22 04:31:17;;;;;;;9.80;8.77;;;;;;;5.56;100.00;99218.72;6047498;23;20207;-80
2022/10/22 04:33:44;;;;;;;9.50;8.43;;;;;;;5.53;100.00;99226.25;6071594;23;20688;-81
2022/10/22 04:36:14;;;;;;;9.10;8.20;;;;;;;5.52;100.00;99230.75;6097406;23;20223;-80
2022/10/22 04:38:42;;;;;;;11.80;10.37;;;;;;;5.50;100.00;99235.47;6098165;23;20215;-80
2022/10/22 04:41:17;;;;;;;12.10;11.00;;;;;;;5.53;100.00;99232.41;6097502;23;20696;-80
2022/10/22 04:43:45;;;;;;;11.23;10.13;;;;;;;5.47;100.00;99222.56;6097365;23;20210;-80
2022/10/22 04:46:12;;;;;;;11.40;9.17;;;;;;;5.52;100.00;99220.13;6098351;23;20204;-81
2022/10/22 04:48:41;;;;;;;10.50;9.17;;;;;;;5.51;100.00;99221.13;6097716;23;20286;-80
2022/10/22 04:51:09;;;;;;;10.27;9.17;;;;;;;5.54;100.00;99231.41;6073214;23;20238;-80
2022/10/22 04:53:36;;;;;;;10.47;9.00;;;;;;;5.51;100.00;99223.78;6073423;23;20208;-80
2022/10/22 04:56:11;;;;;;;9.83;8.40;;;;;;;5.56;100.00;99234.66;6097143;23;20217;-80
2022/10/22 04:58:39;;;;;;;9.40;8.23;;;;;;;5.53;100.00;99236.91;6072758;23;20207;-80
2022/10/22 05:01:15;;;;;;;9.73;8.73;;;;;;;5.48;100.00;99244.63;6097588;23;20197;-79
2022/10/22 05:03:42;;;;;;;10.07;8.07;;;;;;;5.50;100.00;99246.09;6096418;23;20208;-79
2022/10/22 05:06:09;;;;;;;9.30;8.27;;;;;;;5.50;100.00;99234.63;6095404;23;20212;-79
2022/10/22 05:08:36;;;;;;;9.33;8.33;;;;;;;5.47;100.00;99227.88;6096133;23;20212;-79
2022/10/22 05:11:17;;;;;;;10.13;8.37;;;;;;;5.47;100.00;99230.53;6095699;23;20212;-79
2022/10/22 05:13:44;;;;;;;10.70;9.60;;;;;;;5.44;100.00;99220.28;6096686;23;20221;-80
2022/10/22 05:16:11;;;;;;;12.73;11.33;;;;;;;5.40;100.00;99215.56;6046765;23;20206;-79
2022/10/22 05:18:40;;;;;;;12.30;10.80;;;;;;;5.39;100.00;99217.41;6097734;23;20228;-79
2022/10/22 05:21:09;;;;;;;11.17;10.07;;;;;;;5.44;100.00;99219.47;6100284;23;20263;-80
2022/10/22 05:23:35;;;;;;;10.43;9.40;;;;;;;5.46;100.00;99218.25;6099886;23;20212;-80
2022/10/22 05:26:03;;;;;;;10.60;9.57;;;;;;;5.51;100.00;99228.28;6098118;23;20212;-79
2022/10/22 05:28:30;;;;;;;10.97;9.87;;;;;;;5.52;100.00;99214.81;6098980;23;20204;-80
2022/10/22 05:30:58;;;;;;;15.90;12.20;;;;;;;5.62;100.00;99219.75;6049036;23;20544;-80
2022/10/22 05:33:25;;;;;;;12.07;9.73;;;;;;;5.60;100.00;99225.25;6072897;23;20323;-80
2022/10/22 05:35:52;;;;;;;10.73;8.70;;;;;;;5.62;100.00;99228.56;6073948;23;20219;-80
2022/10/22 05:38:19;;;;;;;10.13;8.57;;;;;;;5.66;100.00;99237.78;6073846;23;20216;-80
2022/10/22 05:40:45;;;;;;;10.00;9.00;;;;;;;5.73;100.00;99238.63;6099093;23;20208;-80
2022/10/22 05:43:12;;;;;;;10.00;9.00;;;;;;;5.76;100.00;99230.25;6098855;23;20267;-80
2022/10/22 05:45:40;;;;;;;11.57;8.53;;;;;;;5.83;100.00;99224.97;6097979;23;20212;-80
2022/10/22 05:48:08;;;;;;;9.70;8.47;;;;;;;5.92;100.00;99237.13;6072252;23;20215;-79
2022/10/22 05:50:36;;;;;;;11.90;9.07;;;;;;;5.98;100.00;99235.47;6072035;23;20263;-80
2022/10/22 05:53:04;;;;;;;10.50;8.67;;;;;;;6.06;100.00;99232.66;6097340;23;20222;-80
2022/10/22 05:55:39;;;;;;;9.67;8.67;;;;;;;6.14;100.00;99221.81;6048175;23;20223;-80
2022/10/22 05:58:06;;;;;;;10.20;8.80;;;;;;;6.17;100.00;99224.91;6097575;23;20210;-79
2022/10/22 06:00:33;;;;;;;12.27;8.30;;;;;;;6.28;100.00;99234.13;6097274;23;20204;-80
2022/10/22 06:03:00;;;;;;;10.00;8.77;;;;;;;6.33;100.00;99223.72;6097639;23;20212;-80
2022/10/22 06:05:26;;;;;;;11.03;8.90;;;;;;;6.43;100.00;99229.47;6096187;23;20212;-80
2022/10/22 06:07:53;;;;;;;9.07;8.17;;;;;;;6.53;100.00;99226.41;6097271;23;20208;-79
2022/10/22 06:10:20;;;;;;;13.83;8.83;;;;;;;6.58;100.00;99215.94;6071002;23;20215;-80
2022/10/22 06:12:47;;;;;;;10.47;8.60;;;;;;;6.62;100.00;99215.34;6071780;23;20598;-80
2022/10/22 06:15:15;;;;;;;9.53;8.50;;;;;;;6.71;100.00;99236.44;6096700;23;20208;-80
2022/10/22 06:17:46;;;;;;;9.40;8.50;;;;;;;6.76;100.00;99247.31;6097522;23;20259;-80
2022/10/22 06:20:13;;;;;;;10.20;8.57;;;;;;;6.90;100.00;99255.09;6096837;23;20297;-80
2022/10/22 06:22:40;;;;;;;10.20;9.07;;;;;;;6.95;100.00;99238.50;6098289;23;20259;-80
2022/10/22 06:25:08;;;;;;;9.47;8.57;;;;;;;7.03;100.00;99241.78;6072904;23;20239;-81
2022/10/22 06:28:02;;;;;;;9.57;8.67;;;;;;;7.24;100.00;99253.22;6094274;23;20170;-82
2022/10/22 06:30:33;;;;;;;10.33;8.60;;;;;;;7.39;100.00;99254.63;6098504;23;20197;-82
2022/10/22 06:33:04;;;;;;;13.47;8.70;;;;;;;7.58;100.00;99247.63;6073881;23;20221;-83
2022/10/22 06:35:40;;;;;;;10.17;9.00;;;;;;;7.87;100.00;99267.63;6121714;23;20218;-83
2022/10/22 06:38:59;;;;;;;11.33;9.60;;;;;;;8.08;100.00;99277.19;6043725;23;20191;-83
2022/10/22 06:41:29;;;;;;;11.03;9.93;;;;;;;8.35;100.00;99287.53;6096000;23;20178;-83
2022/10/22 06:44:00;;;;;;;11.13;9.60;;;;;;;8.45;100.00;99280.91;6061371;23;20276;-83
2022/10/22 06:46:35;;;;;;;12.20;9.83;;;;;;;8.65;100.00;99277.13;6074877;23;20208;-83
2022/10/22 06:49:45;;;;;;;12.60;10.00;;;;;;;8.79;100.00;99264.47;6122541;23;20200;-83
2022/10/22 06:52:24;;;;;;;12.90;10.07;;;;;;;8.96;100.00;99264.78;6107784;23;20224;-83
2022/10/22 06:55:03;;;;;;;12.47;9.73;;;;;;;9.14;100.00;99288.88;6072146;23;20197;-83
2022/10/22 06:57:38;;;;;;;11.43;9.90;;;;;;;9.27;100.00;99296.78;6099218;23;20172;-83
2022/10/22 07:15:55;;;;;;;14.53;10.10;;;;;;;10.04;100.00;99338.19;6077327;23;20276;-81
2022/10/22 07:18:24;;;;;;;11.60;10.00;;;;;;;10.08;100.00;99336.69;6081513;23;20218;-82
2022/10/22 08:15:45;;;;;;;11.17;9.97;;;;;;;11.37;100.00;99382.59;6075954;23;20812;-83
2022/10/22 08:18:12;;;;;;;11.43;9.73;;;;;;;11.61;100.00;99385.31;6039734;23;20670;-84
2022/10/22 08:20:39;;;;;;;12.37;9.90;;;;;;;11.91;100.00;99388.72;6039765;23;20209;-85
2022/10/22 08:23:06;;;;;;;12.67;10.23;;;;;;;12.18;100.00;99391.72;6039735;23;20216;-84
2022/10/22 08:25:33;;;;;;;12.07;10.00;;;;;;;12.39;100.00;99380.38;6042591;23;20216;-82
2022/10/22 08:27:59;;;;;;;12.00;10.77;;;;;;;12.55;100.00;99389.59;6068144;23;20306;-86
2022/10/22 08:30:28;;;;;;;11.33;10.23;;;;;;;12.83;100.00;99386.09;6041114;23;20204;-84
2022/10/22 08:32:55;;;;;;;11.37;10.27;;;;;;;13.04;98.98;99380.84;6041979;23;20209;-83
2022/10/22 08:35:22;;;;;;;11.17;10.07;;;;;;;13.18;94.45;99376.00;6041656;23;20525;-83
2022/10/22 08:37:48;;;;;;;12.63;10.53;;;;;;;13.13;92.79;99376.72;6066730;23;20210;-87
2022/10/22 08:40:29;;;;;;;11.83;10.10;;;;;;;13.07;93.58;99369.59;6067373;23;20200;-87
2022/10/22 08:43:03;;;;;;;10.97;9.87;;;;;;;13.08;92.75;99378.47;6068341;23;20216;-88
2022/10/22 08:45:40;;;;;;;11.23;10.10;;;;;;;13.01;94.85;99375.97;6020335;23;20294;-87
2022/10/22 08:48:24;;;;;;;15.90;14.43;;;;;;;12.89;93.94;99385.13;6043515;23;20219;-87
2022/10/22 08:50:53;;;;;;;15.53;13.90;;;;;;;12.61;99.82;99373.31;6068418;23;20209;-88
2022/10/22 08:53:26;;;;;;;18.77;16.97;;;;;;;12.73;100.00;99359.84;6045517;23;20212;-92
2022/10/22 08:55:53;;;;;;;14.43;12.93;;;;;;;12.93;99.49;99381.72;5998097;23;20292;-90
2022/10/22 08:58:19;;;;;;;11.50;10.30;;;;;;;12.93;99.09;99386.25;5996976;23;20213;-89
2022/10/22 09:01:05;;;;;;;11.90;10.70;;;;;;;13.01;99.23;99388.59;6043933;23;20269;-87
2022/10/22 09:03:47;;;;;;;11.73;10.53;;;;;;;13.07;100.00;99382.22;6044912;23;20652;-86
2022/10/22 09:06:17;;;;;;;14.23;10.60;;;;;;;12.90;100.00;99379.50;6042608;23;20267;-86
2022/10/22 09:08:45;;;;;;;12.37;10.73;;;;;;;13.05;100.00;99389.72;6043045;23;20241;-82
2022/10/22 09:11:12;;;;;;;14.60;10.83;;;;;;;13.08;100.00;99400.00;6066834;23;20220;-87
2022/10/22 09:13:40;;;;;;;12.90;10.63;;;;;;;13.03;100.00;99403.41;6068653;23;20230;-87
2022/10/22 09:16:45;;;;;;;11.83;10.63;;;;;;;13.02;100.00;99407.16;6028101;23;20223;-89
2022/10/22 09:20:08;;;;;;;11.77;10.57;;;;;;;12.97;100.00;99419.72;6042722;23;20507;-88
2022/10/22 09:22:46;;;;;;;11.57;10.37;;;;;;;13.05;100.00;99419.31;6020225;23;20216;-88
2022/10/22 09:25:18;;;;;;;13.10;10.77;;;;;;;13.00;99.56;99416.53;6067582;23;20306;-87
2022/10/22 09:27:44;;;;;;;14.37;10.17;;;;;;;13.09;100.00;99407.84;6068255;23;20209;-87
2022/10/22 09:30:16;;;;;;;13.17;11.13;;;;;;;13.16;98.95;99424.66;6042351;23;20211;-87
2022/10/22 09:32:43;;;;;;;12.93;10.33;;;;;;;13.17;100.00;99420.91;6043384;23;20594;-86
2022/10/22 09:35:13;;;;;;;13.53;11.10;;;;;;;13.17;100.00;99430.84;6041715;23;20215;-87
2022/10/22 09:37:52;;;;;;;13.63;12.23;;;;;;;13.10;100.00;99430.19;6040059;23;20239;-87
2022/10/22 09:40:19;;;;;;;12.40;11.13;;;;;;;13.13;100.00;99419.78;6066254;23;20559;-84
2022/10/22 09:42:46;;;;;;;12.60;11.30;;;;;;;13.02;100.00;99427.84;6042077;23;20206;-88
2022/10/22 09:45:24;;;;;;;16.37;13.13;;;;;;;12.87;100.00;99427.56;6018446;23;20218;-87
2022/10/22 09:48:09;;;;;;;13.00;11.60;;;;;;;12.79;100.00;99426.06;6065994;23;20290;-87
2022/10/22 09:50:41;;;;;;;12.43;11.13;;;;;;;12.73;100.00;99440.47;6040543;23;20229;-86
2022/10/22 09:53:28;;;;;;;16.20;12.53;;;;;;;12.66;100.00;99437.91;6066904;23;20650;-87
2022/10/22 09:55:58;;;;;;;19.30;16.40;;;;;;;12.61;100.00;99432.44;6041759;23;20214;-87
2022/10/22 09:58:25;;;;;;;17.43;14.60;;;;;;;12.66;100.00;99429.84;6041147;23;20258;-88
2022/10/22 10:01:00;;;;;;;14.70;13.00;;;;;;;12.72;100.00;99428.91;6066079;23;20652;-87
2022/10/22 10:03:30;;;;;;;15.97;13.03;;;;;;;12.72;100.00;99431.59;6041292;23;20316;-86
2022/10/22 10:05:58;;;;;;;18.80;13.33;;;;;;;12.88;100.00;99434.59;6065862;23;20208;-87
2022/10/22 10:08:31;;;;;;;15.50;13.27;;;;;;;13.01;100.00;99447.75;6064976;23;20195;-88
2022/10/22 10:11:10;;;;;;;16.43;14.60;;;;;;;13.09;100.00;99431.22;6039415;23;20249;-88
2022/10/22 10:13:47;;;;;;;19.83;16.67;;;;;;;13.17;100.00;99437.06;6017222;23;20215;-88
2022/10/22 10:16:31;;;;;;;16.63;14.80;;;;;;;13.29;100.00;99431.63;6017443;23;20648;-88
2022/10/22 10:19:08;;;;;;;18.47;13.67;;;;;;;13.57;100.00;99428.09;6042436;23;20275;-89
2022/10/22 10:21:48;;;;;;;15.30;13.80;;;;;;;13.77;100.00;99425.72;6041467;23;20227;-90
2022/10/22 10:24:25;;;;;;;16.97;13.73;;;;;;;14.01;100.00;99437.94;6040403;23;20235;-88
2022/10/22 10:27:04;;;;;;;16.83;15.03;;;;;;;14.24;100.00;99436.94;6040936;23;20215;-89
2022/10/22 10:30:00;;;;;;;18.23;14.93;;;;;;;14.53;100.00;99438.44;6041191;23;20226;-89
2022/10/22 10:32:47;;;;;;;17.80;15.57;;;;;;;14.61;100.00;99431.78;6017343;23;20209;-89
2022/10/22 10:35:44;;;;;;;14.23;12.77;;;;;;;14.68;100.00;99428.94;6066481;23;20215;-89
2022/10/22 10:38:17;;;;;;;18.17;12.93;;;;;;;14.88;98.70;99437.28;6064454;23;20275;-87
2022/10/22 10:40:48;;;;;;;14.30;12.33;;;;;;;14.94;97.31;99428.16;6017365;23;20278;-88
2022/10/22 10:43:32;;;;;;;14.40;12.83;;;;;;;14.99;96.23;99422.81;6040818;23;20209;-88
2022/10/22 10:46:23;;;;;;;14.23;12.07;;;;;;;15.13;94.99;99426.75;6040579;23;20248;-89
2022/10/22 10:49:17;;;;;;;13.57;12.07;;;;;;;15.03;94.29;99428.50;6064763;23;20234;-88
2022/10/22 10:51:51;;;;;;;13.73;11.83;;;;;;;14.97;96.10;99433.06;6017313;23;20280;-88
2022/10/22 10:54:24;;;;;;;13.07;11.77;;;;;;;14.96;93.60;99421.44;6065207;23;20288;-89
2022/10/22 10:56:54;;;;;;;14.00;12.40;;;;;;;14.87;96.60;99430.25;6066143;23;20216;-88
2022/10/22 10:59:39;;;;;;;13.40;12.10;;;;;;;14.90;99.37;99432.41;6065458;23;20220;-88
2022/10/22 11:02:18;;;;;;;14.77;12.20;;;;;;;14.91;100.00;99424.09;6039101;23;20247;-87
2022/10/22 11:05:06;;;;;;;15.57;12.40;;;;;;;15.02;100.00;99421.50;6040002;23;20235;-88
2022/10/22 11:07:41;;;;;;;13.57;12.17;;;;;;;15.26;100.00;99412.84;6065815;23;20209;-88
2022/10/22 11:10:18;;;;;;;13.87;12.40;;;;;;;15.53;96.63;99407.47;6064938;23;20216;-87
2022/10/22 11:12:50;;;;;;;13.20;11.47;;;;;;;15.98;92.02;99403.47;6016141;23;20252;-88
2022/10/22 11:15:33;;;;;;;16.57;12.73;;;;;;;16.31;86.94;99397.75;6016274;23;20212;-87
2022/10/22 11:18:07;;;;;;;14.63;12.50;;;;;;;16.69;86.21;99407.41;6065463;23;20293;-88
2022/10/22 11:20:41;;;;;;;13.60;12.30;;;;;;;16.87;82.63;99414.25;6017305;23;20528;-88
2022/10/22 11:23:15;;;;;;;14.10;12.60;;;;;;;16.99;80.72;99420.22;6064176;23;20295;-88
2022/10/22 11:25:48;;;;;;;14.87;12.60;;;;;;;17.07;80.48;99422.44;6064079;23;20212;-88
2022/10/22 11:28:28;;;;;;;14.30;13.00;;;;;;;16.89;81.42;99428.31;6064961;23;20207;-88
2022/10/22 11:31:03;;;;;;;14.87;12.40;;;;;;;16.84;82.09;99420.19;6000295;23;20261;-88
2022/10/22 11:33:40;;;;;;;15.77;12.03;;;;;;;16.68;80.92;99424.72;6035802;23;20219;-89
2022/10/22 11:36:09;;;;;;;13.07;11.67;;;;;;;16.59;80.05;99420.91;6016148;23;20264;-86
2022/10/22 11:38:37;;;;;;;13.97;12.57;;;;;;;16.47;80.84;99410.25;6040358;23;20205;-88
2022/10/22 11:41:12;;;;;;;15.53;11.93;;;;;;;16.46;80.33;99421.34;6063974;23;20220;-87
2022/10/22 11:44:08;;;;;;;13.10;11.33;;;;;;;16.61;79.60;99424.16;6041045;23;20216;-87
2022/10/22 11:46:39;;;;;;;14.90;11.60;;;;;;;16.65;79.03;99417.13;6040290;23;20201;-84
2022/10/22 11:49:12;;;;;;;15.17;12.10;;;;;;;16.53;81.95;99414.59;6016613;23;20217;-86
2022/10/22 11:51:40;;;;;;;12.70;11.50;;;;;;;16.46;82.02;99419.47;6063436;23;20208;-87
2022/10/22 11:54:52;;;;;;;13.07;11.77;;;;;;;16.37;82.56;99417.50;6064723;23;20671;-86
2022/10/22 11:57:39;;;;;;;13.83;12.23;;;;;;;16.37;85.28;99415.63;6065162;23;20244;-87
2022/10/22 12:00:39;;;;;;;13.60;12.40;;;;;;;16.40;87.66;99420.50;6039392;23;20205;-87
2022/10/22 12:03:39;;;;;;;13.13;11.83;;;;;;;16.48;87.34;99408.34;6040622;23;20714;-88
2022/10/22 12:06:11;;;;;;;12.63;11.37;;;;;;;16.58;85.88;99420.06;6030967;23;20363;-87
2022/10/22 12:08:45;;;;;;;13.57;11.97;;;;;;;16.66;85.30;99406.03;6065479;23;21438;-87
2022/10/22 12:11:24;;;;;;;23.20;16.67;;;;;;;16.71;85.84;99407.94;6063992;23;20212;-87
2022/10/22 12:13:57;;;;;;;15.10;13.60;;;;;;;16.75;87.43;99419.06;6040437;23;20220;-86
2022/10/22 12:16:35;;;;;;;15.33;13.03;;;;;;;16.66;87.04;99416.03;6020520;23;20237;-87
2022/10/22 12:19:22;;;;;;;14.50;12.40;;;;;;;16.60;86.63;99409.81;6016186;23;20605;-88
2022/10/22 12:22:06;;;;;;;14.67;13.03;;;;;;;16.54;89.39;99415.44;6011661;23;20237;-87
2022/10/22 12:24:36;;;;;;;14.37;12.93;;;;;;;16.45;91.22;99409.72;6011304;23;20201;-88
2022/10/22 12:27:03;;;;;;;14.80;13.27;;;;;;;16.34;91.42;99410.72;6012721;23;20189;-88
2022/10/22 12:29:31;;;;;;;15.40;13.83;;;;;;;16.26;92.98;99409.34;6011900;23;20216;-88
2022/10/22 12:32:02;;;;;;;24.10;21.50;;;;;;;16.15;95.50;99414.94;6012062;23;20232;-87
2022/10/22 12:34:29;;;;;;;17.57;14.90;;;;;;;16.05;98.98;99407.56;5988207;23;20778;-88
2022/10/22 12:36:55;;;;;;;16.07;14.53;;;;;;;15.84;100.00;99400.41;6011665;23;20254;-86
2022/10/22 12:39:25;;;;;;;15.23;13.60;;;;;;;15.79;100.00;99400.38;6007162;23;20217;-91
2022/10/22 12:41:53;;;;;;;15.47;14.07;;;;;;;15.69;100.00;99401.09;6034042;23;20285;-86
2022/10/22 12:44:19;;;;;;;15.53;13.93;;;;;;;15.64;100.00;99398.38;5987869;23;20683;-87
2022/10/22 12:46:47;;;;;;;15.87;14.13;;;;;;;15.63;100.00;99404.84;6012227;23;20189;-87
2022/10/22 12:49:21;;;;;;;16.90;15.20;;;;;;;15.53;100.00;99404.78;6011608;23;20297;-88
2022/10/22 12:51:48;;;;;;;15.70;13.77;;;;;;;15.48;100.00;99410.09;6011793;23;20217;-89
2022/10/22 12:54:24;;;;;;;15.53;14.03;;;;;;;15.50;100.00;99410.63;5987966;23;20220;-88
2022/10/22 12:56:52;;;;;;;15.87;14.20;;;;;;;15.46;100.00;99401.41;5965162;23;20219;-87
2022/10/22 12:59:24;;;;;;;16.10;14.60;;;;;;;15.46;100.00;99404.13;6036684;23;20265;-86